createdAt,value
2023-05-14T00:00:10.670Z,88
2023-05-14T00:02:10.486Z,87
2023-05-14T00:04:10.651Z,87
2023-05-14T00:06:10.602Z,88
2023-05-14T00:08:10.710Z,87
2023-05-14T00:10:10.861Z,87
2023-05-14T00:12:10.726Z,88
2023-05-14T00:14:10.736Z,88
2023-05-14T00:16:10.922Z,88
2023-05-14T00:18:10.772Z,88
2023-05-14T00:20:10.876Z,88
2023-05-14T00:22:10.799Z,88
2023-05-14T00:24:10.928Z,87
2023-05-14T00:26:10.867Z,87
2023-05-14T00:28:10.924Z,87
2023-05-14T00:30:11.038Z,87
2023-05-14T00:32:11.001Z,88
2023-05-14T00:34:10.992Z,88
2023-05-14T00:36:17.118Z,88
2023-05-14T00:38:11.117Z,88
2023-05-14T00:40:11.452Z,88
2023-05-14T00:42:11.341Z,88
2023-05-14T00:44:11.398Z,88
2023-05-14T00:46:11.658Z,88
2023-05-14T00:48:11.688Z,88
2023-05-14T00:50:11.820Z,88
2023-05-14T00:52:11.473Z,88
2023-05-14T00:54:11.723Z,88
2023-05-14T00:56:11.858Z,88
2023-05-14T01:00:11.822Z,88
2023-05-14T01:02:11.821Z,88
2023-05-14T01:04:11.988Z,88
2023-05-14T01:06:13.899Z,88
2023-05-14T01:08:12.097Z,88
2023-05-14T01:10:12.262Z,88
2023-05-14T01:12:12.162Z,88
2023-05-14T01:14:12.252Z,87
2023-05-14T01:18:12.345Z,88
2023-05-14T01:20:12.262Z,88
2023-05-14T01:24:12.327Z,88
2023-05-14T01:26:12.366Z,88
2023-05-14T01:28:12.478Z,88
2023-05-14T01:30:12.389Z,87
2023-05-14T01:32:13.507Z,88
2023-05-14T01:34:12.493Z,87
2023-05-14T01:36:12.636Z,88
2023-05-14T01:38:12.728Z,88
2023-05-14T01:40:13.072Z,88
2023-05-14T01:42:12.881Z,88
2023-05-14T01:44:12.989Z,88
2023-05-14T01:46:13.065Z,88
2023-05-14T01:50:13.117Z,88
2023-05-14T01:52:13.187Z,88
2023-05-14T01:54:13.146Z,88
2023-05-14T01:56:13.198Z,88
2023-05-14T01:58:13.310Z,88
2023-05-14T02:00:13.264Z,88
2023-05-14T02:02:13.444Z,88
2023-05-14T02:04:13.542Z,88
2023-05-14T02:06:13.517Z,88
2023-05-14T02:08:13.560Z,88
2023-05-14T02:10:14.278Z,88
2023-05-14T02:12:14.021Z,88
2023-05-14T02:14:14.118Z,88
2023-05-14T02:16:14.141Z,88
2023-05-14T02:18:14.131Z,88
2023-05-14T02:20:14.139Z,88
2023-05-14T02:22:14.150Z,88
2023-05-14T02:24:14.131Z,88
2023-05-14T02:26:14.180Z,88
2023-05-14T02:28:14.245Z,88
2023-05-14T02:30:14.239Z,88
2023-05-14T02:32:14.305Z,88
2023-05-14T02:34:14.299Z,88
2023-05-14T02:36:14.363Z,88
2023-05-14T02:38:14.388Z,88
2023-05-14T02:40:14.590Z,88
2023-05-14T02:42:14.523Z,88
2023-05-14T02:44:14.528Z,88
2023-05-14T02:46:14.650Z,88
2023-05-14T02:48:14.636Z,88
2023-05-14T02:50:14.648Z,88
2023-05-14T02:54:14.852Z,88
2023-05-14T02:56:15.337Z,88
2023-05-14T02:58:15.306Z,88
2023-05-14T03:00:19.193Z,88
2023-05-14T03:02:15.894Z,88
2023-05-14T03:04:15.430Z,88
2023-05-14T03:06:15.272Z,88
2023-05-14T03:08:15.561Z,88
2023-05-14T03:10:15.908Z,88
2023-05-14T03:14:15.831Z,88
2023-05-14T03:16:15.889Z,88
2023-05-14T03:22:16.086Z,88
2023-05-14T03:24:16.017Z,88
2023-05-14T03:26:16.152Z,88
2023-05-14T03:28:16.286Z,88
2023-05-14T03:30:16.191Z,88
2023-05-14T03:32:16.236Z,88
2023-05-14T03:34:16.345Z,88
2023-05-14T03:36:16.428Z,88
2023-05-14T03:38:16.469Z,88
2023-05-14T03:40:16.480Z,88
2023-05-14T03:42:16.693Z,88
2023-05-14T03:44:16.382Z,88
2023-05-14T03:46:16.668Z,88
2023-05-14T03:48:16.751Z,88
2023-05-14T03:50:16.784Z,87
2023-05-14T03:52:16.872Z,88
2023-05-14T03:54:16.660Z,87
2023-05-14T03:56:17.019Z,87
2023-05-14T03:58:17.180Z,87
2023-05-14T04:00:21.375Z,87
2023-05-14T04:02:17.892Z,87
2023-05-14T04:04:17.885Z,87
2023-05-14T04:06:18.048Z,87
2023-05-14T04:08:17.993Z,87
2023-05-14T04:10:18.266Z,87
2023-05-14T04:16:18.245Z,87
2023-05-14T04:18:18.163Z,87
2023-05-14T04:20:18.185Z,87
2023-05-14T04:22:18.265Z,87
2023-05-14T04:24:18.173Z,87
2023-05-14T04:26:18.262Z,87
2023-05-14T04:28:18.282Z,87
2023-05-14T04:30:18.314Z,87
2023-05-14T04:32:24.804Z,87
2023-05-14T04:34:18.401Z,87
2023-05-14T04:36:18.424Z,87
2023-05-14T04:38:18.422Z,87
2023-05-14T04:40:18.465Z,87
2023-05-14T04:42:18.567Z,87
2023-05-14T04:44:18.550Z,87
2023-05-14T04:46:18.700Z,87
2023-05-14T04:48:18.718Z,87
2023-05-14T04:50:18.774Z,87
2023-05-14T04:52:18.933Z,86
2023-05-14T04:54:19.029Z,86
2023-05-14T04:56:19.063Z,86
2023-05-14T04:58:19.109Z,86
2023-05-14T05:00:19.255Z,86
2023-05-14T05:02:19.418Z,86
2023-05-14T05:06:19.389Z,86
2023-05-14T05:08:19.442Z,86
2023-05-14T05:10:19.537Z,86
2023-05-14T05:12:19.572Z,86
2023-05-14T05:14:19.649Z,86
2023-05-14T05:16:19.825Z,86
2023-05-14T05:18:19.866Z,86
2023-05-14T05:20:20.478Z,86
2023-05-14T05:22:20.542Z,86
2023-05-14T05:24:20.578Z,85
2023-05-14T05:26:20.852Z,86
2023-05-14T05:28:20.742Z,85
2023-05-14T05:30:20.788Z,85
2023-05-14T05:32:20.666Z,86
2023-05-14T05:34:20.957Z,86
2023-05-14T05:36:21.066Z,85
2023-05-14T05:38:21.016Z,85
2023-05-14T05:40:21.202Z,85
2023-05-14T05:42:21.193Z,85
2023-05-14T05:44:21.065Z,84
2023-05-14T05:46:21.150Z,84
2023-05-14T05:48:21.156Z,84
2023-05-14T05:50:21.180Z,84
2023-05-14T05:52:21.178Z,84
2023-05-14T05:54:21.336Z,84
2023-05-14T05:56:21.221Z,84
2023-05-14T05:58:21.768Z,84
2023-05-14T06:02:21.564Z,84
2023-05-14T06:04:21.749Z,84
2023-05-14T06:06:21.686Z,83
2023-05-14T06:08:21.855Z,84
2023-05-14T06:10:22.405Z,84
2023-05-14T06:12:22.531Z,84
2023-05-14T06:14:22.017Z,84
2023-05-14T06:16:22.168Z,84
2023-05-14T06:18:22.277Z,84
2023-05-14T06:20:22.432Z,84
2023-05-14T06:22:22.359Z,84
2023-05-14T06:24:22.448Z,84
2023-05-14T06:26:22.645Z,84
2023-05-14T06:28:22.735Z,84
2023-05-14T06:30:22.946Z,84
2023-05-14T06:32:22.958Z,83
2023-05-14T06:34:23.045Z,83
2023-05-14T06:36:23.024Z,83
2023-05-14T06:38:23.074Z,83
2023-05-14T06:40:23.560Z,83
2023-05-14T06:42:23.341Z,83
2023-05-14T06:44:23.322Z,83
2023-05-14T06:46:23.388Z,83
2023-05-14T06:48:23.514Z,82
2023-05-14T06:50:23.925Z,82
2023-05-14T06:52:23.695Z,82
2023-05-14T06:54:23.926Z,82
2023-05-14T06:56:23.730Z,82
2023-05-14T07:00:24.054Z,82
2023-05-14T07:02:23.991Z,82
2023-05-14T07:04:24.202Z,81
2023-05-14T07:06:24.156Z,81
2023-05-14T07:08:24.323Z,81
2023-05-14T07:10:24.779Z,80
2023-05-14T07:12:24.577Z,81
2023-05-14T07:14:24.622Z,81
2023-05-14T07:16:24.759Z,81
2023-05-14T07:18:24.844Z,81
2023-05-14T07:20:24.941Z,81
2023-05-14T07:24:24.971Z,80
2023-05-14T07:26:28.832Z,81
2023-05-14T07:28:25.162Z,80
2023-05-14T07:30:25.409Z,80
2023-05-14T07:32:25.302Z,80
2023-05-14T07:34:25.409Z,80
2023-05-14T07:36:25.488Z,80
2023-05-14T07:38:25.577Z,80
2023-05-14T07:40:25.846Z,81
2023-05-14T07:44:25.905Z,80
2023-05-14T07:46:25.925Z,80
2023-05-14T07:48:26.065Z,80
2023-05-14T07:50:26.304Z,80
2023-05-14T07:52:28.503Z,80
2023-05-14T07:54:26.172Z,80
2023-05-14T07:56:26.377Z,80
2023-05-14T07:58:26.400Z,80
2023-05-14T08:00:26.696Z,81
2023-05-14T08:02:26.607Z,81
2023-05-14T08:04:26.691Z,81
2023-05-14T08:06:26.677Z,81
2023-05-14T08:08:26.814Z,81
2023-05-14T08:10:27.835Z,81
2023-05-14T08:12:27.007Z,81
2023-05-14T08:14:27.119Z,80
2023-05-14T08:20:27.599Z,79
2023-05-14T08:22:27.498Z,79
2023-05-14T08:24:27.648Z,79
2023-05-14T08:26:27.619Z,78
2023-05-14T08:28:27.750Z,78
2023-05-14T08:32:27.997Z,78
2023-05-14T08:34:28.043Z,78
2023-05-14T08:36:28.257Z,77
2023-05-14T08:38:28.212Z,78
2023-05-14T08:40:28.268Z,79
2023-05-14T08:42:28.344Z,79
2023-05-14T08:44:28.432Z,78
2023-05-14T08:46:28.482Z,78
2023-05-14T08:48:28.630Z,78
2023-05-14T08:50:29.144Z,76
2023-05-14T08:52:28.848Z,77
2023-05-14T08:54:28.848Z,76
2023-05-14T08:56:28.994Z,76
2023-05-14T08:58:29.043Z,76
2023-05-14T09:00:29.075Z,76
2023-05-14T09:04:29.230Z,77
2023-05-14T09:06:29.572Z,77
2023-05-14T09:08:31.539Z,76
2023-05-14T09:10:29.495Z,76
2023-05-14T09:12:29.663Z,74
2023-05-14T09:14:29.754Z,74
2023-05-14T09:16:30.042Z,74
2023-05-14T09:20:30.178Z,74
2023-05-14T09:22:30.342Z,75
2023-05-14T09:24:30.253Z,75
2023-05-14T09:26:30.452Z,74
2023-05-14T09:28:30.542Z,74
2023-05-14T09:30:30.582Z,74
2023-05-14T09:32:32.225Z,75
2023-05-14T09:36:30.936Z,76
2023-05-14T09:38:31.221Z,77
2023-05-14T09:40:31.984Z,76
2023-05-14T09:42:31.309Z,77
2023-05-14T09:44:31.444Z,77
2023-05-14T09:46:31.642Z,76
2023-05-14T09:48:31.812Z,77
2023-05-14T09:52:31.714Z,76
2023-05-14T09:54:33.366Z,75
2023-05-14T09:56:31.628Z,75
2023-05-14T09:58:32.025Z,74
2023-05-14T10:00:31.585Z,73
2023-05-14T10:02:31.618Z,74
2023-05-14T10:04:31.616Z,73
2023-05-14T10:06:31.819Z,72
2023-05-14T10:08:31.713Z,72
2023-05-14T10:10:31.817Z,74
2023-05-14T10:12:31.917Z,73
2023-05-14T10:14:31.946Z,73
2023-05-14T10:16:31.999Z,73
2023-05-14T10:18:32.067Z,74
2023-05-14T10:20:31.939Z,74
2023-05-14T10:22:32.250Z,72
2023-05-14T10:24:33.265Z,72
2023-05-14T10:26:32.612Z,73
2023-05-14T10:28:34.434Z,73
2023-05-14T10:30:32.372Z,72
2023-05-14T10:32:32.438Z,72
2023-05-14T10:34:32.556Z,71
2023-05-14T10:36:32.358Z,71
2023-05-14T10:38:32.465Z,72
2023-05-14T10:40:32.568Z,72
2023-05-14T10:42:32.542Z,72
2023-05-14T10:44:32.649Z,71
2023-05-14T10:46:32.793Z,71
2023-05-14T10:48:32.837Z,72
2023-05-14T10:50:32.779Z,73
2023-05-14T10:52:33.054Z,72
2023-05-14T10:54:32.964Z,72
2023-05-14T10:56:33.054Z,73
2023-05-14T10:58:33.162Z,72
2023-05-14T11:00:33.190Z,70
2023-05-14T11:02:33.269Z,73
2023-05-14T11:04:33.218Z,72
2023-05-14T11:06:33.451Z,72
2023-05-14T11:08:33.591Z,73
2023-05-14T11:10:33.510Z,73
2023-05-14T11:12:33.686Z,72
2023-05-14T11:14:33.625Z,72
2023-05-14T11:16:33.773Z,71
2023-05-14T11:18:33.713Z,71
2023-05-14T11:20:33.728Z,72
2023-05-14T11:22:33.748Z,73
2023-05-14T11:24:34.042Z,71
2023-05-14T11:26:33.890Z,69
2023-05-14T11:28:34.037Z,70
2023-05-14T11:30:34.078Z,70
2023-05-14T11:32:34.214Z,68
2023-05-14T11:34:34.088Z,71
2023-05-14T11:36:34.271Z,70
2023-05-14T11:38:34.256Z,69
2023-05-14T11:40:34.328Z,70
2023-05-14T11:42:34.206Z,70
2023-05-14T11:44:34.481Z,69
2023-05-14T11:46:34.511Z,70
2023-05-14T11:48:34.678Z,69
2023-05-14T11:50:34.530Z,70
2023-05-14T11:52:34.709Z,69
2023-05-14T11:54:34.751Z,69
2023-05-14T11:56:34.806Z,69
2023-05-14T11:58:34.818Z,69
2023-05-14T12:00:34.808Z,69
2023-05-14T12:02:34.941Z,68
2023-05-14T12:04:35.053Z,69
2023-05-14T12:06:35.070Z,68
2023-05-14T12:08:35.158Z,69
2023-05-14T12:10:35.129Z,68
2023-05-14T12:12:35.242Z,69
2023-05-14T12:14:35.147Z,68
2023-05-14T12:16:37.736Z,68
2023-05-14T12:18:35.220Z,68
2023-05-14T12:20:35.299Z,68
2023-05-14T12:22:37.041Z,68
2023-05-14T12:24:35.773Z,67
2023-05-14T12:26:35.646Z,68
2023-05-14T12:28:38.172Z,67
2023-05-14T12:30:35.734Z,67
2023-05-14T12:32:35.780Z,67
2023-05-14T12:34:37.294Z,67
2023-05-14T12:36:35.860Z,67
2023-05-14T12:38:35.700Z,69
2023-05-14T12:40:35.858Z,69
2023-05-14T12:42:35.903Z,69
2023-05-14T12:44:36.012Z,69
2023-05-14T12:46:36.009Z,70
2023-05-14T12:48:36.429Z,69
2023-05-14T12:50:36.194Z,67
2023-05-14T12:52:38.208Z,68
2023-05-14T12:54:36.132Z,67
2023-05-14T12:56:36.329Z,65
2023-05-14T12:58:36.282Z,69
2023-05-14T13:00:36.408Z,69
2023-05-14T13:02:42.456Z,68
2023-05-14T13:04:36.514Z,68
2023-05-14T13:06:36.550Z,69
2023-05-14T13:08:36.585Z,69
2023-05-14T13:10:36.762Z,70
2023-05-14T13:12:36.731Z,69
2023-05-14T13:14:36.738Z,69
2023-05-14T13:16:36.898Z,70
2023-05-14T13:18:36.982Z,74
2023-05-14T13:20:36.892Z,75
2023-05-14T13:22:37.044Z,76
2023-05-14T13:24:37.045Z,76
2023-05-14T13:26:37.287Z,76
2023-05-14T13:28:37.313Z,78
2023-05-14T13:30:37.416Z,76
2023-05-14T13:32:37.320Z,75
2023-05-14T13:34:37.316Z,76
2023-05-14T13:36:37.347Z,75
2023-05-14T13:38:37.563Z,75
2023-05-14T13:40:37.643Z,73
2023-05-14T13:42:37.960Z,74
2023-05-14T13:44:37.818Z,73
2023-05-14T13:46:37.947Z,73
2023-05-14T13:48:37.793Z,73
2023-05-14T13:50:38.046Z,74
2023-05-14T13:52:37.897Z,73
2023-05-14T13:54:38.143Z,73
2023-05-14T13:56:38.196Z,72
2023-05-14T13:58:38.092Z,71
2023-05-14T14:00:38.227Z,71
2023-05-14T14:02:38.483Z,68
2023-05-14T14:06:38.538Z,70
2023-05-14T14:08:38.586Z,69
2023-05-14T14:10:38.536Z,70
2023-05-14T14:12:38.548Z,69
2023-05-14T14:14:38.628Z,70
2023-05-14T14:16:39.092Z,69
2023-05-14T14:18:38.939Z,69
2023-05-14T14:22:39.176Z,69
2023-05-14T14:24:39.050Z,71
2023-05-14T14:26:39.205Z,70
2023-05-14T14:28:39.142Z,70
2023-05-14T14:30:39.183Z,72
2023-05-14T14:32:39.344Z,72
2023-05-14T14:34:39.419Z,72
2023-05-14T14:36:39.451Z,73
2023-05-14T14:38:39.523Z,73
2023-05-14T14:40:39.590Z,75
2023-05-14T14:42:39.596Z,75
2023-05-14T14:44:39.752Z,74
2023-05-14T14:46:39.915Z,76
2023-05-14T14:48:39.812Z,75
2023-05-14T14:50:39.902Z,74
2023-05-14T14:52:40.072Z,73
2023-05-14T14:54:40.038Z,73
2023-05-14T14:56:40.246Z,74
2023-05-14T14:58:40.191Z,71
2023-05-14T15:00:40.231Z,72
2023-05-14T15:02:40.498Z,70
2023-05-14T15:04:40.559Z,70
2023-05-14T15:06:40.553Z,69
2023-05-14T15:08:40.694Z,70
2023-05-14T15:10:40.679Z,70
2023-05-14T15:12:40.669Z,69
2023-05-14T15:14:40.969Z,71
2023-05-14T15:16:40.883Z,72
2023-05-14T15:18:41.053Z,73
2023-05-14T15:20:41.076Z,75
2023-05-14T15:22:41.039Z,74
2023-05-14T15:24:41.228Z,75
2023-05-14T15:26:41.627Z,77
2023-05-14T15:28:41.608Z,76
2023-05-14T15:30:41.413Z,76
2023-05-14T15:32:41.261Z,75
2023-05-14T15:34:41.862Z,74
2023-05-14T15:36:41.588Z,74
2023-05-14T15:38:42.130Z,74
2023-05-14T15:40:42.009Z,75
2023-05-14T15:42:42.023Z,75
2023-05-14T15:44:41.881Z,75
2023-05-14T15:46:42.123Z,76
2023-05-14T15:48:42.148Z,75
2023-05-14T15:50:42.372Z,75
2023-05-14T15:52:48.619Z,74
2023-05-14T15:56:42.746Z,74
2023-05-14T15:58:42.659Z,74
2023-05-14T16:02:42.833Z,72
2023-05-14T16:06:42.867Z,72
2023-05-14T16:08:42.883Z,73
2023-05-14T16:10:42.818Z,73
2023-05-14T16:12:43.194Z,75
2023-05-14T16:14:43.087Z,76
2023-05-14T16:16:43.267Z,75
2023-05-14T16:18:43.267Z,77
2023-05-14T16:22:43.505Z,78
2023-05-14T16:24:43.877Z,79
2023-05-14T16:28:43.583Z,79
2023-05-14T16:30:43.686Z,79
2023-05-14T16:32:43.889Z,80
2023-05-14T16:34:43.846Z,80
2023-05-14T16:36:43.801Z,80
2023-05-14T16:38:57.108Z,81
2023-05-14T16:40:44.068Z,82
2023-05-14T16:42:44.327Z,83
2023-05-14T16:44:44.235Z,83
2023-05-14T16:46:44.447Z,83
2023-05-14T16:48:45.267Z,83
2023-05-14T16:50:44.750Z,83
2023-05-14T16:52:44.574Z,84
2023-05-14T16:54:44.694Z,85
2023-05-14T16:56:44.824Z,85
2023-05-14T16:58:44.660Z,86
2023-05-14T17:00:44.811Z,86
2023-05-14T17:02:44.986Z,86
2023-05-14T17:04:45.091Z,87
2023-05-14T17:06:45.038Z,87
2023-05-14T17:08:45.070Z,87
2023-05-14T17:10:45.241Z,87
2023-05-14T17:12:45.293Z,87
2023-05-14T17:14:45.348Z,88
2023-05-14T17:16:45.453Z,88
2023-05-14T17:18:45.584Z,88
2023-05-14T17:20:45.755Z,88
2023-05-14T17:22:45.832Z,88
2023-05-14T17:24:45.841Z,88
2023-05-14T17:26:45.917Z,88
2023-05-14T17:28:46.178Z,87
2023-05-14T17:30:46.076Z,87
2023-05-14T17:32:46.769Z,87
2023-05-14T17:34:46.206Z,87
2023-05-14T17:36:46.395Z,87
2023-05-14T17:38:46.454Z,88
2023-05-14T17:40:46.495Z,87
2023-05-14T17:42:46.599Z,88
2023-05-14T17:44:46.632Z,88
2023-05-14T17:46:46.732Z,88
2023-05-14T17:48:46.722Z,88
2023-05-14T17:50:46.927Z,88
2023-05-14T17:52:47.055Z,88
2023-05-14T17:54:46.942Z,88
2023-05-14T17:56:47.005Z,88
2023-05-14T17:58:47.122Z,88
2023-05-14T18:00:47.321Z,88
2023-05-14T18:02:47.548Z,88
2023-05-14T18:04:47.552Z,88
2023-05-14T18:06:47.502Z,88
2023-05-14T18:08:47.667Z,88
2023-05-14T18:10:47.564Z,88
2023-05-14T18:12:47.626Z,88
2023-05-14T18:14:47.815Z,88
2023-05-14T18:16:47.864Z,88
2023-05-14T18:18:47.887Z,89
2023-05-14T18:20:48.019Z,89
2023-05-14T18:22:48.012Z,89
2023-05-14T18:24:48.048Z,89
2023-05-14T18:26:48.131Z,89
2023-05-14T18:28:48.203Z,89
2023-05-14T18:30:48.434Z,89
2023-05-14T18:32:48.453Z,89
2023-05-14T18:34:48.521Z,89
2023-05-14T18:36:48.654Z,89
2023-05-14T18:38:48.670Z,90
2023-05-14T18:40:48.753Z,89
2023-05-14T18:42:48.847Z,90
2023-05-14T18:44:48.907Z,90
2023-05-14T18:46:49.048Z,90
2023-05-14T18:48:49.048Z,90
2023-05-14T18:50:49.048Z,90
2023-05-14T18:52:49.182Z,90
2023-05-14T18:54:49.247Z,90
2023-05-14T18:56:49.290Z,90
2023-05-14T18:58:49.445Z,90
2023-05-14T19:00:49.494Z,90
2023-05-14T19:02:49.692Z,90
2023-05-14T19:06:49.770Z,90
2023-05-14T19:08:49.780Z,90
2023-05-14T19:10:49.868Z,90
2023-05-14T19:12:49.998Z,90
2023-05-14T19:16:50.059Z,91
2023-05-14T19:18:50.172Z,90
2023-05-14T19:20:50.219Z,90
2023-05-14T19:22:50.394Z,91
2023-05-14T19:26:50.446Z,91
2023-05-14T19:28:50.494Z,91
2023-05-14T19:30:50.787Z,91
2023-05-14T19:32:50.822Z,91
2023-05-14T19:34:51.706Z,91
2023-05-14T19:36:50.839Z,91
2023-05-14T19:40:50.892Z,91
2023-05-14T19:42:51.181Z,91
2023-05-14T19:44:51.295Z,90
2023-05-14T19:48:51.437Z,91
2023-05-14T19:50:51.317Z,91
2023-05-14T19:52:51.406Z,90
2023-05-14T19:54:51.617Z,91
2023-05-14T19:56:51.787Z,91
2023-05-14T19:58:51.716Z,91
2023-05-14T20:00:51.906Z,91
2023-05-14T20:02:52.066Z,91
2023-05-14T20:04:52.026Z,91
2023-05-14T20:06:52.157Z,91
2023-05-14T20:08:52.162Z,91
2023-05-14T20:12:52.418Z,91
2023-05-14T20:14:52.564Z,91
2023-05-14T20:16:52.598Z,91
2023-05-14T20:18:52.714Z,91
2023-05-14T20:20:52.715Z,90
2023-05-14T20:22:52.782Z,90
2023-05-14T20:24:52.890Z,90
2023-05-14T20:26:53.064Z,90
2023-05-14T20:30:52.992Z,91
2023-05-14T20:32:53.267Z,91
2023-05-14T20:34:53.368Z,91
2023-05-14T20:36:53.408Z,91
2023-05-14T20:38:53.581Z,91
2023-05-14T20:40:53.875Z,91
2023-05-14T20:42:53.703Z,91
2023-05-14T20:44:53.733Z,91
2023-05-14T20:46:53.936Z,91
2023-05-14T20:48:53.999Z,91
2023-05-14T20:50:53.844Z,91
2023-05-14T20:52:54.108Z,91
2023-05-14T20:54:54.196Z,91
2023-05-14T20:56:54.250Z,91
2023-05-14T20:58:54.123Z,91
2023-05-14T21:00:54.356Z,91
2023-05-14T21:02:54.376Z,91
2023-05-14T21:04:54.776Z,91
2023-05-14T21:06:54.727Z,91
2023-05-14T21:08:55.079Z,91
2023-05-14T21:10:54.799Z,91
2023-05-14T21:12:54.968Z,91
2023-05-14T21:14:54.992Z,91
2023-05-14T21:16:54.913Z,91
2023-05-14T21:20:55.269Z,91
2023-05-14T21:22:55.402Z,91
2023-05-14T21:24:55.234Z,91
2023-05-14T21:26:55.412Z,91
2023-05-14T21:28:55.654Z,91
2023-05-14T21:30:55.668Z,91
2023-05-14T21:32:55.727Z,91
2023-05-14T21:34:55.852Z,91
2023-05-14T21:36:55.887Z,91
2023-05-14T21:38:55.909Z,91
2023-05-14T21:40:56.123Z,91
2023-05-14T21:42:56.256Z,91
2023-05-14T21:44:56.429Z,91
2023-05-14T21:46:56.436Z,91
2023-05-14T21:48:56.678Z,91
2023-05-14T21:50:56.619Z,91
2023-05-14T21:52:56.638Z,91
2023-05-14T21:54:56.713Z,91
2023-05-14T21:56:57.010Z,91
2023-05-14T21:58:56.945Z,91
2023-05-14T22:02:57.390Z,91
2023-05-14T22:04:57.392Z,91
2023-05-14T22:06:57.381Z,91
2023-05-14T22:08:57.559Z,91
2023-05-14T22:10:57.641Z,91
2023-05-14T22:12:57.564Z,91
2023-05-14T22:16:57.978Z,91
2023-05-14T22:18:58.081Z,91
2023-05-14T22:20:58.339Z,91
2023-05-14T22:22:58.429Z,91
2023-05-14T22:24:58.239Z,91
2023-05-14T22:26:58.403Z,91
2023-05-14T22:28:58.584Z,91
2023-05-14T22:30:58.589Z,91
2023-05-14T22:32:58.879Z,91
2023-05-14T22:34:58.995Z,91
2023-05-14T22:36:59.209Z,91
2023-05-14T22:38:59.067Z,91
2023-05-14T22:40:58.909Z,91
2023-05-14T22:42:59.255Z,91
2023-05-14T22:44:59.433Z,91
2023-05-14T22:46:59.476Z,91
2023-05-14T22:48:59.710Z,91
2023-05-14T22:50:59.758Z,91
2023-05-14T22:52:59.706Z,91
2023-05-14T22:54:59.791Z,91
2023-05-14T22:56:59.906Z,91
2023-05-14T22:58:59.833Z,91
2023-05-14T23:00:59.999Z,91
2023-05-14T23:03:00.850Z,91
2023-05-14T23:05:00.310Z,91
2023-05-14T23:07:00.478Z,91
2023-05-14T23:09:00.536Z,91
2023-05-14T23:11:01.267Z,91
2023-05-14T23:13:00.838Z,91
2023-05-14T23:15:00.830Z,91
2023-05-14T23:17:00.962Z,91
2023-05-14T23:19:01.342Z,91
2023-05-14T23:21:01.428Z,91
2023-05-14T23:23:01.468Z,91
2023-05-14T23:25:01.709Z,91
2023-05-14T23:27:01.872Z,91
2023-05-14T23:29:01.993Z,91
2023-05-14T23:31:01.853Z,91
2023-05-14T23:33:02.113Z,91
2023-05-14T23:35:02.495Z,91
2023-05-14T23:37:02.117Z,91
2023-05-14T23:39:02.686Z,91
2023-05-14T23:41:02.863Z,91
2023-05-14T23:43:03.365Z,91
2023-05-14T23:45:03.033Z,91
2023-05-14T23:47:03.153Z,91
2023-05-14T23:51:03.392Z,91
2023-05-14T23:53:03.493Z,91
2023-05-14T23:55:03.501Z,91
2023-05-14T23:57:04.069Z,91
2023-05-14T23:59:03.678Z,91
